Reno Tahoe International Airport
KRNO : rendu visible

Aérodrome :











RETROUVEZ-NOUS SUR...

 
LOGIN :

S'inscrire | Disclaimer

   EN    FR    IT 

 









Légende :    VFR   VFR Marginal   IFR   IFR Intensif   IFR Très Intensif
Visi : 
Plafond : 
>= 8 km
>= 3000ft
5 à 8 km
1000 à 3000 ft
1500m à 5 km
500 à 1000 ft
800 à 1500m
200 à 500 ft
< 800m
< 200 ft
Symboles :   Orages  Brouillard  Fortes neiges  Fortes précipitations  Vent > 20 kt






- Altitude de l'aérodrome : 4415 ft
- Code IATA : RNO


KRNO - Reno Tahoe International

DERNIER METAR :
  • 210755Z 00000KT 10SM BKN047 OVC070 04/00 A2978 RMK AO2 SLP077 T00440000 400610033

METARs EXPIRÉS :
  • 210655Z 20005KT 10SM BKN045 OVC070 04/01 A2978 RMK AO2 SLP077 T00440006

TAF KRNO
Valide du 21 à 06h jusqu'au 22 à 06h UTC


210530Z 2106/2206 VRB04KT P6SM OVC040
FM211400 VRB04KT P6SM SCT040 BKN070
FM211900 VRB04KT P6SM SCT070 BKN150



MET'MAP, la Météo Aéronautique d'un coup d'oeil ! - Copyright ORBIFLY Décembre 2007 - Disclaimer

ORBIFLY MET'MAP TEAM :

Programmation & Développement : Alexandra Zaïnal
Conception & Développement : Baudouin d'Aumeries
Co-Programmation & Développement : Marc-Olivier Méhu
Soutien technique & logistique : Manuel Goepfert

Contact : metmap@orbifly.com




SOURCES & CREDITS :

   NOAA       Earth
Advisory